createdAt,value
2017-07-25T00:00:34.986Z,93.89
2017-07-25T00:03:07.368Z,94.03
2017-07-25T00:05:39.624Z,93.98
2017-07-25T00:08:11.995Z,93.98
2017-07-25T00:10:44.344Z,94.04
2017-07-25T00:13:16.687Z,93.83
2017-07-25T00:15:49.075Z,93.85
2017-07-25T00:18:21.672Z,93.89
2017-07-25T00:20:54.027Z,93.88
2017-07-25T00:23:26.380Z,93.96
2017-07-25T00:25:58.668Z,93.95
2017-07-25T00:28:31.099Z,94.10
2017-07-25T00:31:03.348Z,94.08
2017-07-25T00:33:35.727Z,94.18
2017-07-25T00:36:08.028Z,94.17
2017-07-25T00:38:40.440Z,94.19
2017-07-25T00:41:12.708Z,94.23
2017-07-25T00:43:45.183Z,94.20
2017-07-25T00:46:17.571Z,94.29
2017-07-25T00:48:49.951Z,94.22
2017-07-25T00:51:22.399Z,94.28
2017-07-25T00:53:54.819Z,94.42
2017-07-25T00:56:27.055Z,94.44
2017-07-25T00:58:59.439Z,94.45
2017-07-25T01:01:31.794Z,94.45
2017-07-25T01:16:49.596Z,91.55
2017-07-25T01:19:21.684Z,92.48
2017-07-25T01:21:54.016Z,93.00
2017-07-25T01:24:25.950Z,93.30
2017-07-25T01:26:58.360Z,93.38
2017-07-25T01:29:30.795Z,93.57
2017-07-25T01:32:03.184Z,93.67
2017-07-25T01:34:35.476Z,93.78
2017-07-25T01:37:08.444Z,93.97
2017-07-25T01:39:40.279Z,94.01
2017-07-25T01:42:12.759Z,94.19
2017-07-25T01:44:45.169Z,94.28
2017-07-25T01:47:17.636Z,94.36
2017-07-25T01:49:49.998Z,94.30
2017-07-25T01:52:22.460Z,94.25
2017-07-25T01:54:54.391Z,94.33
2017-07-25T01:57:26.696Z,94.53
2017-07-25T01:59:59.055Z,94.54
2017-07-25T02:02:31.483Z,94.67
2017-07-25T02:05:03.739Z,94.50
2017-07-25T02:07:36.128Z,94.49
2017-07-25T02:10:08.304Z,94.46
2017-07-25T02:12:40.788Z,94.46
2017-07-25T02:15:13.231Z,94.49
2017-07-25T02:17:45.550Z,94.53
2017-07-25T02:20:17.854Z,94.55
2017-07-25T02:22:50.273Z,94.52
2017-07-25T02:25:22.644Z,94.66
2017-07-25T02:27:55.030Z,94.70
2017-07-25T02:30:27.404Z,94.62
2017-07-25T02:32:59.658Z,94.68
2017-07-25T02:35:31.940Z,94.61
2017-07-25T02:38:04.410Z,94.52
2017-07-25T02:40:36.858Z,94.42
2017-07-25T02:43:09.203Z,94.63
2017-07-25T02:45:41.498Z,94.63
2017-07-25T02:48:13.910Z,94.57
2017-07-25T02:50:46.150Z,94.45
2017-07-25T02:53:18.528Z,94.45
2017-07-25T02:55:50.816Z,94.31
2017-07-25T02:58:23.205Z,94.45
2017-07-25T03:00:55.538Z,94.60
2017-07-25T03:03:27.847Z,94.60
2017-07-25T03:06:00.087Z,94.55
2017-07-25T03:08:32.625Z,94.70
2017-07-25T03:11:04.967Z,94.66
2017-07-25T03:13:37.419Z,94.72
2017-07-25T03:16:09.679Z,94.65
2017-07-25T03:18:42.190Z,94.87
2017-07-25T03:21:14.587Z,94.64
2017-07-25T03:24:01.942Z,94.71
2017-07-25T03:26:34.628Z,94.71
2017-07-25T03:29:07.142Z,94.70
2017-07-25T03:31:39.594Z,94.76
2017-07-25T03:34:11.903Z,94.76
2017-07-25T03:36:44.242Z,94.76
2017-07-25T03:39:16.534Z,94.52
2017-07-25T03:41:48.884Z,94.61
2017-07-25T03:44:21.351Z,94.80
2017-07-25T03:46:53.827Z,94.80
2017-07-25T03:49:26.210Z,94.68
2017-07-25T03:51:58.597Z,94.72
2017-07-25T03:54:30.957Z,94.98
2017-07-25T03:57:03.415Z,94.88
2017-07-25T03:59:35.716Z,94.90
2017-07-25T04:02:08.010Z,94.84
2017-07-25T04:04:40.448Z,94.76
2017-07-25T04:07:12.827Z,94.69
2017-07-25T04:09:45.484Z,94.80
2017-07-25T04:12:17.503Z,94.69
2017-07-25T04:14:50.051Z,94.81
2017-07-25T04:17:22.395Z,94.65
2017-07-25T04:19:54.794Z,94.66
2017-07-25T04:22:27.143Z,94.64
2017-07-25T04:24:59.666Z,94.52
2017-07-25T04:27:31.995Z,94.36
2017-07-25T04:30:04.354Z,94.53
2017-07-25T04:32:36.734Z,94.52
2017-07-25T04:35:09.136Z,94.48
2017-07-25T04:37:41.472Z,94.44
2017-07-25T04:40:13.817Z,94.32
2017-07-25T04:42:46.131Z,94.46
2017-07-25T04:45:18.635Z,94.68
2017-07-25T04:47:50.999Z,94.75
2017-07-25T04:50:23.396Z,94.60
2017-07-25T04:52:55.764Z,94.57
2017-07-25T04:55:28.215Z,94.64
2017-07-25T04:58:00.607Z,94.52
2017-07-25T05:00:33.099Z,94.60
2017-07-25T05:03:05.562Z,94.71
2017-07-25T05:05:38.035Z,94.63
2017-07-25T05:08:10.343Z,94.65
2017-07-25T05:10:42.715Z,94.48
2017-07-25T05:13:15.154Z,94.45
2017-07-25T05:15:47.548Z,94.40
2017-07-25T05:18:32.286Z,94.52
2017-07-25T05:21:04.346Z,94.47
2017-07-25T05:23:36.752Z,94.69
2017-07-25T05:26:09.178Z,94.44
2017-07-25T05:28:41.507Z,94.50
2017-07-25T05:31:13.871Z,94.28
2017-07-25T05:33:46.190Z,94.37
2017-07-25T05:36:18.607Z,94.48
2017-07-25T05:38:50.924Z,94.62
2017-07-25T05:41:23.368Z,94.44
2017-07-25T05:43:55.830Z,94.56
2017-07-25T05:46:28.203Z,94.63
2017-07-25T05:49:00.508Z,94.57
2017-07-25T05:51:32.992Z,94.15
2017-07-25T05:54:05.308Z,94.21
2017-07-25T05:56:38.618Z,94.27
2017-07-25T05:59:10.959Z,94.00
2017-07-25T06:01:43.388Z,94.04
2017-07-25T06:04:15.823Z,93.96
2017-07-25T06:06:48.230Z,93.78
2017-07-25T06:09:20.509Z,93.53
2017-07-25T06:11:52.980Z,93.70
2017-07-25T06:14:25.231Z,93.58
2017-07-25T06:16:57.814Z,93.56
2017-07-25T06:19:30.171Z,93.61
2017-07-25T06:22:02.564Z,93.49
2017-07-25T06:24:34.914Z,93.55
2017-07-25T06:27:08.295Z,93.28
2017-07-25T06:29:40.702Z,93.13
2017-07-25T06:32:14.194Z,92.90
2017-07-25T06:34:46.580Z,92.95
2017-07-25T06:37:19.983Z,92.99
2017-07-25T06:39:52.330Z,92.93
2017-07-25T06:42:24.623Z,93.07
2017-07-25T06:44:56.936Z,93.32
2017-07-25T06:47:29.279Z,93.38
2017-07-25T06:50:01.615Z,93.16
2017-07-25T06:52:34.014Z,93.16
2017-07-25T06:55:06.331Z,92.61
2017-07-25T06:57:38.655Z,92.64
2017-07-25T07:00:10.910Z,92.54
2017-07-25T07:02:43.399Z,92.49
2017-07-25T07:05:15.858Z,91.99
2017-07-25T07:07:48.307Z,92.08
2017-07-25T07:10:20.599Z,91.52
2017-07-25T07:12:52.938Z,91.54
2017-07-25T07:15:25.271Z,90.89
2017-07-25T07:17:57.679Z,90.61
2017-07-25T07:20:29.972Z,90.70
2017-07-25T07:23:02.393Z,90.42
2017-07-25T07:25:34.847Z,90.23
2017-07-25T07:28:07.229Z,89.86
2017-07-25T07:30:39.557Z,90.40
2017-07-25T07:33:11.890Z,90.22
2017-07-25T07:35:44.292Z,89.80
2017-07-25T07:38:16.720Z,89.69
2017-07-25T07:40:49.174Z,89.50
2017-07-25T07:43:21.497Z,89.23
2017-07-25T07:45:53.835Z,89.47
2017-07-25T07:48:26.284Z,89.37
2017-07-25T07:50:58.723Z,89.62
2017-07-25T07:53:31.204Z,89.58
2017-07-25T07:56:03.555Z,89.69
2017-07-25T07:58:35.897Z,90.10
2017-07-25T08:01:08.278Z,90.12
2017-07-25T08:03:40.622Z,90.21
2017-07-25T08:06:13.019Z,90.02
2017-07-25T08:08:45.515Z,89.84
2017-07-25T08:11:17.882Z,89.94
2017-07-25T08:13:50.282Z,89.85
2017-07-25T08:16:22.622Z,89.99
2017-07-25T08:18:54.880Z,89.54
2017-07-25T08:21:27.258Z,89.99
2017-07-25T08:23:59.679Z,89.96
2017-07-25T08:26:32.081Z,89.72
2017-07-25T08:29:04.367Z,89.16
2017-07-25T08:31:36.768Z,88.86
2017-07-25T08:34:09.251Z,88.97
2017-07-25T08:36:41.611Z,89.08
2017-07-25T08:39:14.103Z,89.15
2017-07-25T08:41:46.467Z,89.48
2017-07-25T08:44:18.823Z,89.99
2017-07-25T08:46:51.195Z,90.28
2017-07-25T08:49:23.703Z,90.36
2017-07-25T08:51:55.976Z,90.54
2017-07-25T08:54:28.582Z,90.44
2017-07-25T08:57:01.015Z,90.58
2017-07-25T08:59:33.290Z,89.55
2017-07-25T09:02:05.542Z,89.41
2017-07-25T09:04:37.853Z,89.14
2017-07-25T09:07:10.204Z,88.86
2017-07-25T09:09:42.683Z,88.97
2017-07-25T09:12:15.099Z,88.93
2017-07-25T09:14:47.555Z,88.70
2017-07-25T09:17:19.835Z,88.07
2017-07-25T09:19:52.143Z,87.51
2017-07-25T09:22:24.544Z,87.53
2017-07-25T09:24:57.136Z,88.05
2017-07-25T09:27:29.466Z,88.15
2017-07-25T09:30:02.001Z,88.86
2017-07-25T09:32:34.514Z,89.28
2017-07-25T09:35:06.902Z,89.56
2017-07-25T09:37:39.388Z,89.49
2017-07-25T09:40:11.694Z,88.61
2017-07-25T09:42:44.198Z,88.91
2017-07-25T09:45:16.607Z,88.95
2017-07-25T09:47:49.074Z,88.59
2017-07-25T09:50:21.474Z,87.96
2017-07-25T09:52:53.778Z,87.05
2017-07-25T09:55:26.211Z,86.83
2017-07-25T09:57:58.563Z,86.80
2017-07-25T10:00:30.812Z,87.18
2017-07-25T10:03:03.148Z,85.93
2017-07-25T10:05:35.608Z,85.47
2017-07-25T10:08:07.896Z,84.95
2017-07-25T10:10:40.356Z,85.48
2017-07-25T10:13:12.736Z,85.92
2017-07-25T10:15:45.147Z,85.37
2017-07-25T10:18:17.434Z,85.56
2017-07-25T10:20:49.767Z,85.87
2017-07-25T10:23:22.128Z,83.90
2017-07-25T10:25:54.554Z,83.08
2017-07-25T10:28:26.828Z,82.77
2017-07-25T10:30:59.202Z,80.55
2017-07-25T10:33:31.633Z,81.59
2017-07-25T10:36:04.070Z,80.82
2017-07-25T10:38:36.248Z,79.75
2017-07-25T10:41:08.720Z,78.98
2017-07-25T10:43:41.097Z,76.67
2017-07-25T10:46:13.683Z,72.35
2017-07-25T10:48:46.039Z,71.83
2017-07-25T10:51:18.479Z,72.11
2017-07-25T10:53:50.859Z,69.76
2017-07-25T10:56:23.184Z,71.82
2017-07-25T10:58:55.546Z,71.09
2017-07-25T11:01:27.864Z,72.18
2017-07-25T11:04:00.267Z,73.16
2017-07-25T11:06:32.654Z,74.06
2017-07-25T11:09:05.052Z,73.47
2017-07-25T11:11:37.564Z,72.41
2017-07-25T11:14:09.864Z,72.24
2017-07-25T11:16:43.362Z,72.10
2017-07-25T11:19:15.756Z,73.27
2017-07-25T11:21:48.110Z,73.12
2017-07-25T11:24:20.404Z,72.42
2017-07-25T11:26:52.803Z,71.01
2017-07-25T11:29:25.172Z,69.49
2017-07-25T11:31:57.528Z,68.97
2017-07-25T11:34:29.901Z,68.53
2017-07-25T11:37:02.192Z,69.06
2017-07-25T11:39:34.530Z,69.50
2017-07-25T11:42:06.875Z,69.37
2017-07-25T11:44:39.391Z,69.54
2017-07-25T11:47:11.778Z,70.83
2017-07-25T11:49:44.219Z,70.75
2017-07-25T11:52:16.584Z,72.50
2017-07-25T11:54:48.780Z,72.41
2017-07-25T11:57:21.186Z,72.15
2017-07-25T11:59:53.471Z,73.40
2017-07-25T12:02:25.851Z,72.49
2017-07-25T12:04:58.072Z,73.61
2017-07-25T12:07:30.298Z,74.46
2017-07-25T12:10:02.476Z,75.39
2017-07-25T12:12:34.858Z,75.41
2017-07-25T12:15:07.200Z,75.51
2017-07-25T12:17:40.658Z,75.73
2017-07-25T12:20:12.951Z,74.76
2017-07-25T12:22:45.386Z,74.68
2017-07-25T12:25:17.702Z,75.34
2017-07-25T12:27:49.978Z,75.71
2017-07-25T12:30:22.248Z,75.31
2017-07-25T12:32:54.631Z,74.18
2017-07-25T12:35:26.875Z,73.48
2017-07-25T12:37:59.163Z,73.34
2017-07-25T12:40:31.404Z,72.00
2017-07-25T12:43:03.726Z,72.74
2017-07-25T12:45:35.995Z,72.58
2017-07-25T12:48:08.253Z,73.27
2017-07-25T12:50:40.536Z,72.05
2017-07-25T12:53:12.775Z,71.39
2017-07-25T12:55:44.904Z,71.50
2017-07-25T12:58:17.355Z,71.27
2017-07-25T13:01:02.299Z,71.80
2017-07-25T13:03:34.180Z,72.49
2017-07-25T13:06:06.669Z,73.60
2017-07-25T13:08:39.000Z,74.19
2017-07-25T13:11:11.295Z,75.21
2017-07-25T13:13:43.521Z,75.21
2017-07-25T13:16:15.731Z,76.80
2017-07-25T13:18:48.122Z,78.31
2017-07-25T13:21:20.435Z,79.61
2017-07-25T13:23:53.019Z,80.56
2017-07-25T13:26:25.065Z,81.60
2017-07-25T13:28:57.616Z,82.72
2017-07-25T13:31:29.900Z,84.01
2017-07-25T13:34:02.343Z,84.76
2017-07-25T13:36:34.796Z,84.49
2017-07-25T13:39:07.101Z,84.81
2017-07-25T13:41:39.541Z,84.96
2017-07-25T13:44:11.895Z,84.10
2017-07-25T13:46:44.122Z,83.82
2017-07-25T13:49:16.372Z,83.07
2017-07-25T13:51:48.744Z,82.82
2017-07-25T13:54:21.150Z,82.70
2017-07-25T13:56:53.732Z,82.39
2017-07-25T13:59:26.906Z,81.19
2017-07-25T14:01:59.304Z,81.33
2017-07-25T14:04:32.558Z,82.29
2017-07-25T14:07:05.011Z,81.97
2017-07-25T14:09:37.348Z,82.80
2017-07-25T14:12:09.658Z,82.49
2017-07-25T14:14:42.016Z,82.17
2017-07-25T14:17:14.414Z,80.96
2017-07-25T14:19:46.786Z,80.72
2017-07-25T14:22:19.093Z,80.27
2017-07-25T14:24:51.320Z,78.80
2017-07-25T14:27:23.666Z,78.94
2017-07-25T14:29:56.096Z,78.97
2017-07-25T14:32:28.392Z,78.33
2017-07-25T14:35:00.667Z,79.05
2017-07-25T14:37:32.955Z,78.49
2017-07-25T14:40:05.288Z,77.26
2017-07-25T14:42:37.523Z,77.72
2017-07-25T14:45:09.885Z,77.84
2017-07-25T14:47:42.099Z,78.47
2017-07-25T14:50:14.383Z,79.30
2017-07-25T14:52:46.583Z,79.09
2017-07-25T14:55:18.914Z,79.84
2017-07-25T14:57:51.289Z,80.24
2017-07-25T15:00:23.952Z,80.66
2017-07-25T15:02:56.009Z,81.74
2017-07-25T15:05:28.346Z,82.09
2017-07-25T15:08:00.541Z,82.56
2017-07-25T15:10:32.918Z,82.98
2017-07-25T15:13:05.258Z,82.75
2017-07-25T15:15:37.634Z,84.44
2017-07-25T15:18:10.016Z,84.96
2017-07-25T15:20:42.457Z,85.37
2017-07-25T15:23:14.726Z,86.23
2017-07-25T15:25:47.164Z,87.13
2017-07-25T15:28:19.439Z,87.39
2017-07-25T15:30:51.746Z,87.60
2017-07-25T15:33:23.990Z,87.55
2017-07-25T15:35:56.356Z,87.37
2017-07-25T15:38:28.546Z,86.62
2017-07-25T15:41:00.948Z,86.52
2017-07-25T15:43:33.140Z,86.36
2017-07-25T15:46:05.559Z,85.61
2017-07-25T15:48:37.791Z,85.51
2017-07-25T15:51:10.098Z,85.46
2017-07-25T15:53:42.259Z,85.44
2017-07-25T15:56:14.772Z,84.72
2017-07-25T15:58:46.847Z,84.95
2017-07-25T16:01:19.284Z,84.31
2017-07-25T16:03:51.633Z,83.36
2017-07-25T16:06:23.984Z,83.41
2017-07-25T16:08:56.236Z,83.36
2017-07-25T16:11:28.480Z,83.34
2017-07-25T16:14:00.814Z,83.42
2017-07-25T16:16:33.123Z,83.88
2017-07-25T16:19:05.459Z,83.98
2017-07-25T16:21:37.680Z,84.00
2017-07-25T16:24:09.979Z,84.25
2017-07-25T16:26:42.199Z,84.41
2017-07-25T16:29:14.522Z,84.48
2017-07-25T16:31:46.955Z,85.41
2017-07-25T16:34:19.310Z,86.20
2017-07-25T16:36:52.524Z,86.84
2017-07-25T16:39:24.858Z,87.29
2017-07-25T16:41:57.163Z,87.42
2017-07-25T16:44:29.544Z,87.77
2017-07-25T16:47:01.821Z,88.07
2017-07-25T16:49:34.243Z,88.53
2017-07-25T16:52:06.735Z,88.55
2017-07-25T16:54:38.957Z,88.80
2017-07-25T16:57:11.256Z,88.78
2017-07-25T16:59:43.527Z,89.06
2017-07-25T17:02:15.947Z,89.38
2017-07-25T17:04:48.300Z,89.40
2017-07-25T17:07:20.593Z,89.51
2017-07-25T17:09:53.142Z,88.96
2017-07-25T17:12:25.515Z,88.75
2017-07-25T17:14:57.904Z,88.83
2017-07-25T17:17:30.181Z,88.57
2017-07-25T17:20:02.459Z,88.48
2017-07-25T17:22:34.750Z,88.52
2017-07-25T17:25:07.128Z,88.80
2017-07-25T17:27:39.410Z,88.90
2017-07-25T17:30:11.588Z,88.90
2017-07-25T17:32:43.852Z,88.89
2017-07-25T17:35:16.871Z,88.92
2017-07-25T17:37:49.483Z,88.99
2017-07-25T17:40:21.675Z,88.68
2017-07-25T17:42:54.004Z,88.89
2017-07-25T17:45:26.263Z,88.60
2017-07-25T17:47:58.640Z,88.75
2017-07-25T17:50:30.981Z,88.71
2017-07-25T17:53:03.292Z,88.73
2017-07-25T17:55:35.566Z,88.53
2017-07-25T17:58:07.875Z,88.68
2017-07-25T18:00:40.200Z,88.66
2017-07-25T18:03:12.542Z,89.21
2017-07-25T18:05:44.843Z,89.13
2017-07-25T18:08:17.450Z,88.63
2017-07-25T18:10:49.373Z,88.58
2017-07-25T18:13:21.652Z,88.53
2017-07-25T18:15:53.970Z,88.00
2017-07-25T18:18:26.470Z,88.10
2017-07-25T18:20:58.663Z,87.79
2017-07-25T18:23:31.135Z,87.34
2017-07-25T18:26:03.496Z,87.10
2017-07-25T18:28:35.840Z,86.97
2017-07-25T18:31:08.193Z,87.17
2017-07-25T18:33:40.628Z,87.56
2017-07-25T18:36:12.916Z,87.92
2017-07-25T18:38:45.423Z,88.48
2017-07-25T18:41:17.747Z,88.55
2017-07-25T18:43:50.259Z,88.36
2017-07-25T18:46:22.504Z,88.21
2017-07-25T18:48:54.960Z,88.44
2017-07-25T18:51:27.473Z,88.27
2017-07-25T18:53:59.803Z,88.30
2017-07-25T18:56:32.128Z,88.20
2017-07-25T18:59:04.729Z,88.07
2017-07-25T19:01:37.130Z,87.94
2017-07-25T19:04:09.752Z,87.86
2017-07-25T19:06:42.127Z,87.86
2017-07-25T19:09:14.588Z,88.00
2017-07-25T19:11:47.072Z,88.12
2017-07-25T19:14:19.544Z,88.07
2017-07-25T19:16:51.967Z,88.19
2017-07-25T19:19:24.442Z,88.24
2017-07-25T19:21:56.747Z,88.37
2017-07-25T19:24:29.044Z,88.64
2017-07-25T19:27:01.456Z,88.92
2017-07-25T19:29:33.875Z,89.19
2017-07-25T19:32:06.231Z,89.13
2017-07-25T19:34:38.635Z,89.01
2017-07-25T19:37:11.001Z,89.18
2017-07-25T19:39:43.346Z,89.45
2017-07-25T19:42:15.718Z,89.37
2017-07-25T19:44:48.023Z,89.38
2017-07-25T19:47:20.479Z,89.66
2017-07-25T19:49:52.995Z,89.66
2017-07-25T19:52:25.238Z,89.68
2017-07-25T19:54:57.664Z,89.73
2017-07-25T19:57:30.118Z,90.07
2017-07-25T20:00:02.576Z,90.46
2017-07-25T20:02:34.933Z,90.47
2017-07-25T20:05:07.264Z,90.54
2017-07-25T20:07:39.556Z,90.51
2017-07-25T20:10:11.891Z,90.47
2017-07-25T20:12:44.147Z,90.37
2017-07-25T20:15:16.486Z,90.01
2017-07-25T20:17:48.787Z,89.92
2017-07-25T20:20:21.238Z,89.66
2017-07-25T20:22:53.915Z,89.42
2017-07-25T20:25:25.987Z,89.22
2017-07-25T20:27:58.270Z,88.70
2017-07-25T20:30:30.748Z,89.10
2017-07-25T20:33:03.014Z,89.36
2017-07-25T20:35:35.411Z,89.28
2017-07-25T20:38:07.677Z,89.46
2017-07-25T20:40:40.050Z,89.62
2017-07-25T20:43:12.482Z,89.62
2017-07-25T20:45:44.787Z,89.94
2017-07-25T20:48:17.119Z,89.92
2017-07-25T20:50:49.543Z,90.09
2017-07-25T20:53:21.815Z,90.36
2017-07-25T20:55:54.233Z,90.45
2017-07-25T20:58:26.442Z,90.49
2017-07-25T21:00:59.035Z,90.39
2017-07-25T21:03:31.492Z,90.23
2017-07-25T21:06:03.844Z,90.18
2017-07-25T21:08:36.015Z,90.23
2017-07-25T21:11:08.447Z,90.26
2017-07-25T21:13:40.663Z,90.54
2017-07-25T21:16:13.043Z,90.43
2017-07-25T21:18:45.299Z,90.45
2017-07-25T21:21:17.636Z,90.48
2017-07-25T21:23:50.000Z,90.48
2017-07-25T21:26:22.438Z,90.62
2017-07-25T21:28:54.682Z,90.78
2017-07-25T21:31:27.036Z,90.81
2017-07-25T21:33:59.327Z,90.73
2017-07-25T21:36:31.828Z,91.04
2017-07-25T21:39:04.202Z,91.04
2017-07-25T21:41:36.559Z,91.00
2017-07-25T21:44:08.919Z,90.84
2017-07-25T21:46:41.234Z,90.67
2017-07-25T21:49:13.570Z,90.61
2017-07-25T21:51:45.931Z,90.64
2017-07-25T21:54:18.318Z,90.58
2017-07-25T21:56:50.763Z,90.51
2017-07-25T21:59:23.090Z,90.59
2017-07-25T22:02:07.845Z,90.58
2017-07-25T22:04:52.336Z,90.77
2017-07-25T22:07:24.395Z,90.62
2017-07-25T22:09:56.664Z,90.86
2017-07-25T22:12:29.002Z,91.01
2017-07-25T22:15:01.348Z,91.07
2017-07-25T22:17:33.710Z,91.15
2017-07-25T22:20:06.064Z,91.18
2017-07-25T22:22:38.428Z,91.47
2017-07-25T22:25:10.773Z,91.39
2017-07-25T22:27:43.230Z,91.42
2017-07-25T22:30:15.655Z,91.59
2017-07-25T22:32:48.019Z,91.50
2017-07-25T22:35:20.486Z,91.41
2017-07-25T22:37:52.917Z,91.56
2017-07-25T22:40:25.411Z,91.75
2017-07-25T22:42:57.800Z,91.69
2017-07-25T22:45:30.071Z,91.57
2017-07-25T22:48:02.435Z,91.61
2017-07-25T22:50:34.773Z,91.84
2017-07-25T22:53:07.122Z,91.77
2017-07-25T22:55:39.315Z,91.84
2017-07-25T22:58:11.530Z,91.89
2017-07-25T23:00:43.711Z,91.77
2017-07-25T23:03:16.062Z,91.77
2017-07-25T23:05:48.305Z,91.85
2017-07-25T23:08:20.600Z,91.79
2017-07-25T23:10:52.905Z,91.92
2017-07-25T23:13:25.244Z,91.84
2017-07-25T23:15:57.437Z,91.95
2017-07-25T23:18:29.706Z,92.05
2017-07-25T23:21:02.129Z,92.25
2017-07-25T23:23:35.556Z,92.21
2017-07-25T23:26:07.950Z,92.49
2017-07-25T23:28:40.397Z,92.49
2017-07-25T23:31:12.611Z,92.50
2017-07-25T23:33:45.071Z,92.51
2017-07-25T23:36:17.251Z,92.49
2017-07-25T23:38:49.501Z,92.58
2017-07-25T23:41:21.796Z,92.44
2017-07-25T23:43:54.086Z,92.27
2017-07-25T23:46:26.423Z,92.32
2017-07-25T23:48:58.744Z,92.37
2017-07-25T23:51:31.031Z,92.36
2017-07-25T23:54:03.387Z,92.40
2017-07-25T23:56:35.728Z,92.48
2017-07-25T23:59:08.026Z,92.57
